createdAt,value
2022-09-03T00:00:35.304Z,101034.97
2022-09-03T00:03:23.699Z,101040.19
2022-09-03T00:06:21.246Z,101043.69
2022-09-03T00:09:09.769Z,101037.63
2022-09-03T00:12:21.585Z,101036.78
2022-09-03T00:15:06.183Z,101029.91
2022-09-03T00:17:48.406Z,101038.63
2022-09-03T00:20:42.615Z,101043.78
2022-09-03T00:23:18.827Z,101029.06
2022-09-03T00:26:03.528Z,101035.13
2022-09-03T00:28:40.376Z,101039.47
2022-09-03T00:31:18.794Z,101038.63
2022-09-03T00:33:49.905Z,101024.81
2022-09-03T00:36:21.085Z,101033.41
2022-09-03T00:38:48.323Z,101027.38
2022-09-03T00:41:41.615Z,101036.06
2022-09-03T00:44:38.846Z,101009.31
2022-09-03T00:47:08.885Z,101039.53
2022-09-03T00:50:23.650Z,101033.53
2022-09-03T00:53:38.816Z,101040.47
2022-09-03T00:56:08.873Z,101029.22
2022-09-03T00:59:13.468Z,101033.53
2022-09-03T01:01:59.221Z,101033.53
2022-09-03T01:04:44.559Z,101030.06
2022-09-03T01:07:20.684Z,101031.81
2022-09-03T01:09:57.769Z,101028.38
2022-09-03T01:12:49.111Z,101029.25
2022-09-03T01:15:49.112Z,101027.56
2022-09-03T01:19:15.080Z,101033.63
2022-09-03T01:22:05.802Z,101038.84
2022-09-03T01:25:03.702Z,101028.44
2022-09-03T01:27:47.451Z,101023.25
2022-09-03T01:30:24.331Z,101018.94
2022-09-03T01:33:19.110Z,101026.69
2022-09-03T01:36:11.186Z,101020.66
2022-09-03T01:38:41.158Z,101021.53
2022-09-03T01:41:46.318Z,101014.59
2022-09-03T01:44:19.102Z,101024.16
2022-09-03T01:46:51.196Z,101023.31
2022-09-03T01:49:32.830Z,101016.38
2022-09-03T01:52:12.851Z,101019.03
2022-09-03T01:54:51.720Z,101016.38
2022-09-03T01:57:37.329Z,101013.78
2022-09-03T02:00:06.811Z,101011.25
2022-09-03T02:02:48.221Z,101023.38
2022-09-03T02:05:20.472Z,101014.75
2022-09-03T02:07:48.806Z,101012.97
2022-09-03T02:10:21.124Z,101006.97
2022-09-03T02:13:11.567Z,100992.28
2022-09-03T02:15:40.450Z,100999.19
2022-09-03T02:18:15.398Z,101006.16
2022-09-03T02:20:43.158Z,101005.25
2022-09-03T02:23:10.358Z,101007.00
2022-09-03T02:25:42.294Z,100999.19
2022-09-03T02:28:10.900Z,101009.59
2022-09-03T02:30:45.548Z,101001.84
2022-09-03T02:33:13.327Z,101013.06
2022-09-03T02:35:41.237Z,101007.88
2022-09-03T02:38:17.918Z,101009.59
2022-09-03T02:40:45.957Z,101006.16
2022-09-03T02:43:26.027Z,101009.63
2022-09-03T02:45:58.786Z,101003.53
2022-09-03T02:48:26.044Z,101007.03
2022-09-03T02:50:53.485Z,101011.34
2022-09-03T02:53:21.239Z,101016.50
2022-09-03T02:55:48.357Z,100994.91
2022-09-03T02:58:15.655Z,101002.66
2022-09-03T03:00:42.747Z,101005.25
2022-09-03T03:03:09.861Z,101000.06
2022-09-03T03:05:43.172Z,100997.44
2022-09-03T03:08:15.426Z,100995.75
2022-09-03T03:10:45.188Z,101000.94
2022-09-03T03:13:12.999Z,101004.41
2022-09-03T03:15:40.774Z,101007.88
2022-09-03T03:18:08.237Z,101004.44
2022-09-03T03:20:35.411Z,101001.84
2022-09-03T03:23:03.592Z,101005.31
2022-09-03T03:25:36.017Z,101003.59
2022-09-03T03:28:04.504Z,101004.47
2022-09-03T03:30:32.801Z,101006.16
2022-09-03T03:33:00.920Z,101012.25
2022-09-03T03:35:27.994Z,101013.13
2022-09-03T03:37:55.096Z,101020.06
2022-09-03T03:40:22.243Z,101007.09
2022-09-03T03:42:50.234Z,101013.19
2022-09-03T03:45:17.718Z,101019.25
2022-09-03T03:47:44.883Z,101014.97
2022-09-03T03:50:11.997Z,101008.94
2022-09-03T03:52:39.049Z,101004.63
2022-09-03T03:55:07.119Z,101011.53
2022-09-03T03:57:34.859Z,101003.81
2022-09-03T04:00:02.160Z,101013.28
2022-09-03T04:02:41.449Z,101015.06
2022-09-03T04:05:09.066Z,101015.06
2022-09-03T04:07:36.611Z,101020.25
2022-09-03T04:10:04.149Z,101020.28
2022-09-03T04:12:31.349Z,101006.44
2022-09-03T04:14:58.454Z,101023.72
2022-09-03T04:17:25.661Z,101011.63
2022-09-03T04:19:52.873Z,101024.59
2022-09-03T04:22:20.881Z,101016.81
2022-09-03T04:24:48.198Z,101019.41
2022-09-03T04:27:15.277Z,101001.25
2022-09-03T04:29:42.399Z,101012.50
2022-09-03T04:32:27.919Z,101015.09
2022-09-03T04:34:55.285Z,101020.28
2022-09-03T04:37:22.356Z,101013.34
2022-09-03T04:39:49.609Z,101017.66
2022-09-03T04:42:16.769Z,101021.13
2022-09-03T04:44:43.891Z,101015.91
2022-09-03T04:47:10.920Z,101019.38
2022-09-03T04:49:39.566Z,101021.09
2022-09-03T04:52:06.647Z,101012.44
2022-09-03T04:54:33.848Z,101030.56
2022-09-03T04:57:01.048Z,101032.31
2022-09-03T04:59:28.139Z,101026.19
2022-09-03T05:01:57.000Z,101022.75
2022-09-03T05:04:24.208Z,101021.88
2022-09-03T05:06:51.320Z,101037.34
2022-09-03T05:09:18.579Z,101028.69
2022-09-03T05:11:45.688Z,101023.47
2022-09-03T05:14:12.930Z,101034.63
2022-09-03T05:16:40.380Z,101037.16
2022-09-03T05:19:08.639Z,101038.88
2022-09-03T05:21:36.410Z,101037.13
2022-09-03T05:24:04.321Z,101028.47
2022-09-03T05:26:36.563Z,101034.41
2022-09-03T05:29:09.091Z,101043.84
2022-09-03T05:31:39.658Z,101019.59
2022-09-03T05:34:07.731Z,101048.84
2022-09-03T05:36:37.237Z,101044.44
2022-09-03T05:39:05.571Z,101034.78
2022-09-03T05:41:34.419Z,101038.97
2022-09-03T05:44:01.965Z,101038.88
2022-09-03T05:46:33.899Z,101046.59
2022-09-03T05:49:02.532Z,101036.16
2022-09-03T05:51:30.701Z,101034.31
2022-09-03T05:53:58.676Z,101035.97
2022-09-03T05:56:27.666Z,101044.56
2022-09-03T05:58:57.405Z,101035.03
2022-09-03T06:01:30.248Z,101039.44
2022-09-03T06:04:03.209Z,101042.94
2022-09-03T06:06:32.460Z,101041.19
2022-09-03T06:09:02.773Z,101044.69
2022-09-03T06:11:30.617Z,101041.19
2022-09-03T06:14:05.996Z,101053.19
2022-09-03T06:16:35.299Z,101040.91
2022-09-03T06:19:03.169Z,101040.50
2022-09-03T06:21:30.439Z,101038.44
2022-09-03T06:24:00.033Z,101037.16
2022-09-03T06:26:28.928Z,101042.78
2022-09-03T06:28:57.805Z,101033.75
2022-09-03T06:31:25.649Z,101035.41
2022-09-03T06:33:55.322Z,101042.47
2022-09-03T06:36:24.689Z,101036.47
2022-09-03T06:38:53.880Z,101045.28
2022-09-03T06:41:26.478Z,101053.00
2022-09-03T06:43:57.475Z,101040.75
2022-09-03T06:46:25.166Z,101054.72
2022-09-03T06:48:52.339Z,101053.66
2022-09-03T06:51:24.929Z,101057.03
2022-09-03T06:54:00.301Z,101045.63
2022-09-03T06:56:27.539Z,101054.88
2022-09-03T06:58:59.694Z,101051.00
2022-09-03T07:01:32.240Z,101044.88
2022-09-03T07:04:01.923Z,101047.25
2022-09-03T07:06:31.764Z,101046.88
2022-09-03T07:09:00.421Z,101044.88
2022-09-03T07:11:30.967Z,101044.03
2022-09-03T07:13:58.366Z,101047.47
2022-09-03T07:16:30.834Z,101052.66
2022-09-03T07:18:58.242Z,101043.72
2022-09-03T07:21:28.511Z,101041.47
2022-09-03T07:23:56.682Z,101039.44
2022-09-03T07:26:26.824Z,101045.25
2022-09-03T07:28:54.715Z,101039.09
2022-09-03T07:31:28.260Z,101042.44
2022-09-03T07:33:56.648Z,101038.69
2022-09-03T07:36:26.438Z,101031.09
2022-09-03T07:38:57.012Z,101027.97
2022-09-03T07:41:28.905Z,101037.13
2022-09-03T07:43:57.444Z,101043.03
2022-09-03T07:46:27.447Z,101040.78
2022-09-03T07:48:57.049Z,101033.19
2022-09-03T07:51:26.976Z,101040.41
2022-09-03T07:53:59.332Z,101044.16
2022-09-03T07:56:27.912Z,101046.78
2022-09-03T07:58:57.561Z,101046.13
2022-09-03T08:01:26.575Z,101052.06
2022-09-03T08:03:54.436Z,101046.59
2022-09-03T08:06:26.958Z,101051.09
2022-09-03T08:09:05.231Z,101041.34
2022-09-03T08:11:43.975Z,101044.38
2022-09-03T08:14:13.249Z,101045.47
2022-09-03T08:16:43.205Z,101045.22
2022-09-03T08:19:12.295Z,101038.75
2022-09-03T08:21:42.963Z,101033.91
2022-09-03T08:24:15.405Z,101028.97
2022-09-03T08:26:47.672Z,101038.59
2022-09-03T08:29:19.019Z,101037.53
2022-09-03T08:31:46.395Z,101027.69
2022-09-03T08:34:14.968Z,101041.13
2022-09-03T08:36:42.743Z,101044.69
2022-09-03T08:39:11.727Z,101032.22
2022-09-03T08:41:51.389Z,101037.94
2022-09-03T08:44:40.246Z,101025.63
2022-09-03T08:47:39.086Z,101015.56
2022-09-03T08:50:17.565Z,101018.25
2022-09-03T08:52:51.616Z,101020.53
2022-09-03T08:55:42.966Z,101021.09
2022-09-03T08:58:16.092Z,101017.53
2022-09-03T09:01:13.380Z,101009.88
2022-09-03T09:04:14.681Z,101010.63
2022-09-03T09:06:54.389Z,101019.78
2022-09-03T09:09:28.579Z,101016.13
2022-09-03T09:12:14.371Z,101013.78
2022-09-03T09:15:31.278Z,101009.41
2022-09-03T09:18:06.397Z,101006.63
2022-09-03T09:20:36.813Z,100997.63
2022-09-03T09:23:06.729Z,101001.84
2022-09-03T09:25:39.622Z,101002.34
2022-09-03T09:28:33.365Z,101000.94
2022-09-03T09:31:03.188Z,101004.06
2022-09-03T09:33:32.685Z,100992.97
2022-09-03T09:36:06.792Z,101000.66
2022-09-03T09:38:36.827Z,100992.00
2022-09-03T09:41:10.130Z,100989.53
2022-09-03T09:43:38.177Z,100992.22
2022-09-03T09:46:20.065Z,100981.06
2022-09-03T09:48:58.435Z,100984.31
2022-09-03T09:51:31.286Z,100982.88
2022-09-03T09:54:15.029Z,100979.59
2022-09-03T09:56:43.252Z,100987.97
2022-09-03T09:59:12.053Z,100981.81
2022-09-03T10:01:41.323Z,100978.03
2022-09-03T10:04:12.165Z,100986.31
2022-09-03T10:06:55.915Z,100977.78
2022-09-03T10:09:30.819Z,100988.34
2022-09-03T10:12:04.047Z,100984.78
2022-09-03T10:14:37.248Z,100977.47
2022-09-03T10:17:36.929Z,100980.13
2022-09-03T10:20:30.868Z,100972.22
2022-09-03T10:23:22.159Z,100971.34
2022-09-03T10:26:15.473Z,100974.97
2022-09-03T10:28:44.680Z,100970.47
2022-09-03T10:31:22.760Z,100965.88
2022-09-03T10:33:57.374Z,100973.00
2022-09-03T10:36:33.472Z,100969.19
2022-09-03T10:39:23.964Z,100964.50
2022-09-03T10:42:00.167Z,100965.94
2022-09-03T10:44:42.329Z,100961.19
2022-09-03T10:47:21.930Z,100958.34
2022-09-03T10:50:01.922Z,100963.91
2022-09-03T10:52:43.482Z,100956.06
2022-09-03T10:55:14.214Z,100937.88
2022-09-03T10:57:56.542Z,100950.00
2022-09-03T11:00:24.551Z,100943.22
2022-09-03T11:03:28.691Z,100942.25
2022-09-03T11:06:21.758Z,100938.25
2022-09-03T11:08:54.042Z,100936.91
2022-09-03T11:11:33.109Z,100940.13
2022-09-03T11:14:03.580Z,100933.28
2022-09-03T11:16:46.883Z,100940.66
2022-09-03T11:19:19.415Z,100941.78
2022-09-03T11:21:49.059Z,100923.72
2022-09-03T11:24:21.249Z,100929.44
2022-09-03T11:27:01.052Z,100929.63
2022-09-03T11:29:51.605Z,100923.56
2022-09-03T11:32:26.387Z,100930.00
2022-09-03T11:34:55.521Z,100926.94
2022-09-03T11:37:22.653Z,100927.75
2022-09-03T11:40:13.950Z,100928.44
2022-09-03T11:42:43.693Z,100918.78
2022-09-03T11:45:19.766Z,100924.34
2022-09-03T11:47:47.270Z,100921.19
2022-09-03T11:50:30.528Z,100913.50
2022-09-03T11:53:16.631Z,100914.38
2022-09-03T11:56:18.245Z,100914.06
2022-09-03T11:58:47.107Z,100908.25
2022-09-03T12:01:20.936Z,100885.16
2022-09-03T12:03:57.919Z,100907.56
2022-09-03T12:06:36.330Z,100904.72
2022-09-03T12:09:21.937Z,100901.66
2022-09-03T12:12:24.284Z,100903.97
2022-09-03T12:14:58.768Z,100894.72
2022-09-03T12:18:10.126Z,100895.13
2022-09-03T12:20:37.497Z,100891.00
2022-09-03T12:23:04.658Z,100883.25
2022-09-03T12:25:32.720Z,100883.09
2022-09-03T12:28:04.161Z,100871.19
2022-09-03T12:30:32.579Z,100879.03
2022-09-03T12:33:11.270Z,100874.00
2022-09-03T12:38:27.451Z,100864.13
2022-09-03T12:43:50.424Z,100862.59
2022-09-03T12:46:18.164Z,100861.53
2022-09-03T12:51:49.051Z,100865.88
2022-09-03T12:54:18.970Z,100868.81
2022-09-03T12:56:56.619Z,100868.34
2022-09-03T12:59:25.675Z,100840.44
2022-09-03T13:01:57.604Z,100862.03
2022-09-03T13:04:37.605Z,100855.47
2022-09-03T13:07:12.169Z,100847.47
2022-09-03T13:09:41.852Z,100840.88
2022-09-03T13:12:22.006Z,100851.44
2022-09-03T13:14:52.819Z,100854.53
2022-09-03T13:17:49.206Z,100861.09
2022-09-03T13:20:30.142Z,100858.19
2022-09-03T13:23:15.894Z,100839.72
2022-09-03T13:26:05.926Z,100849.00
2022-09-03T13:28:45.757Z,100833.75
2022-09-03T13:31:39.246Z,100838.63
2022-09-03T13:34:15.708Z,100838.19
2022-09-03T13:37:13.613Z,100836.66
2022-09-03T13:40:00.322Z,100836.91
2022-09-03T13:42:31.403Z,100827.09
2022-09-03T13:45:06.952Z,100832.38
2022-09-03T13:47:40.338Z,100831.16
2022-09-03T13:50:22.630Z,100826.03
2022-09-03T13:53:04.930Z,100832.00
2022-09-03T13:55:32.120Z,100835.56
2022-09-03T13:58:22.924Z,100832.56
2022-09-03T14:00:54.963Z,100837.53
2022-09-03T14:03:49.797Z,100836.63
2022-09-03T14:06:45.227Z,100834.34
2022-09-03T14:09:22.754Z,100822.34
2022-09-03T14:12:18.838Z,100825.91
2022-09-03T14:15:26.277Z,100826.78
2022-09-03T14:18:33.171Z,100829.34
2022-09-03T14:21:06.011Z,100828.59
2022-09-03T14:23:55.473Z,100826.91
2022-09-03T14:26:39.029Z,100828.75
2022-09-03T14:29:13.004Z,100826.25
2022-09-03T14:32:11.386Z,100833.34
2022-09-03T14:35:00.966Z,100831.56
2022-09-03T14:38:05.760Z,100832.78
2022-09-03T14:40:56.810Z,100829.59
2022-09-03T14:43:40.586Z,100825.53
2022-09-03T14:46:21.079Z,100828.03
2022-09-03T14:49:08.207Z,100832.66
2022-09-03T14:52:00.866Z,100832.28
2022-09-03T14:54:46.358Z,100835.81
2022-09-03T14:57:48.276Z,100816.91
2022-09-03T15:00:20.018Z,100833.41
2022-09-03T15:02:53.443Z,100833.84
2022-09-03T15:05:38.770Z,100831.69
2022-09-03T15:08:39.235Z,100828.66
2022-09-03T15:11:20.495Z,100832.97
2022-09-03T15:14:16.016Z,100840.88
2022-09-03T15:17:00.148Z,100838.91
2022-09-03T15:20:01.085Z,100841.94
2022-09-03T15:22:50.191Z,100839.97
2022-09-03T15:25:17.536Z,100842.69
2022-09-03T15:28:06.078Z,100839.41
2022-09-03T15:30:40.566Z,100834.53
2022-09-03T15:33:20.350Z,100835.75
2022-09-03T15:36:22.806Z,100831.00
2022-09-03T15:39:19.451Z,100841.00
2022-09-03T15:41:57.926Z,100842.09
2022-09-03T15:44:34.966Z,100840.16
2022-09-03T15:47:29.886Z,100852.00
2022-09-03T15:50:29.625Z,100846.38
2022-09-03T15:53:05.726Z,100831.41
2022-09-03T15:55:32.998Z,100848.09
2022-09-03T15:58:08.800Z,100826.53
2022-09-03T16:00:55.526Z,100831.78
2022-09-03T16:03:41.541Z,100835.28
2022-09-03T16:06:23.966Z,100832.94
2022-09-03T16:08:59.338Z,100834.28
2022-09-03T16:11:45.646Z,100840.75
2022-09-03T16:14:35.352Z,100846.34
2022-09-03T16:17:21.610Z,100839.63
2022-09-03T16:20:01.972Z,100838.97
2022-09-03T16:22:43.686Z,100842.63
2022-09-03T16:25:18.686Z,100836.53
2022-09-03T16:27:56.607Z,100838.47
2022-09-03T16:30:36.078Z,100845.66
2022-09-03T16:33:22.646Z,100841.38
2022-09-03T16:36:11.326Z,100846.72
2022-09-03T16:39:06.838Z,100846.00
2022-09-03T16:41:50.846Z,100832.31
2022-09-03T16:44:39.126Z,100839.38
2022-09-03T16:47:27.799Z,100838.56
2022-09-03T16:50:13.406Z,100835.31
2022-09-03T16:53:02.918Z,100838.09
2022-09-03T16:55:52.039Z,100836.63
2022-09-03T16:58:35.606Z,100836.94
2022-09-03T17:01:27.321Z,100838.78
2022-09-03T17:04:07.038Z,100846.78
2022-09-03T17:07:11.719Z,100851.38
2022-09-03T17:09:56.187Z,100859.41
2022-09-03T17:12:50.046Z,100853.59
2022-09-03T17:15:25.166Z,100857.22
2022-09-03T17:18:01.720Z,100855.72
2022-09-03T17:20:58.128Z,100862.03
2022-09-03T17:23:59.406Z,100853.69
2022-09-03T17:26:48.321Z,100854.81
2022-09-03T17:29:46.366Z,100863.69
2022-09-03T17:32:23.645Z,100866.53
2022-09-03T17:35:09.527Z,100869.38
2022-09-03T17:37:53.088Z,100865.19
2022-09-03T17:40:44.766Z,100854.16
2022-09-03T17:43:28.758Z,100862.16
2022-09-03T17:46:11.260Z,100866.63
2022-09-03T17:48:52.398Z,100866.88
2022-09-03T17:51:22.285Z,100872.22
2022-09-03T17:53:57.398Z,100878.44
2022-09-03T17:56:47.438Z,100877.63
2022-09-03T17:59:17.489Z,100877.88
2022-09-03T18:02:02.366Z,100881.56
2022-09-03T18:04:46.047Z,100882.50
2022-09-03T18:07:40.959Z,100893.16
2022-09-03T18:10:19.606Z,100899.34
2022-09-03T18:13:01.483Z,100897.69
2022-09-03T18:15:59.047Z,100895.22
2022-09-03T18:18:34.453Z,100903.28
2022-09-03T18:21:31.338Z,100900.88
2022-09-03T18:24:41.728Z,100906.25
2022-09-03T18:28:01.157Z,100913.34
2022-09-03T18:30:47.064Z,100916.13
2022-09-03T18:33:43.438Z,100909.28
2022-09-03T18:36:30.927Z,100923.34
2022-09-03T18:39:44.572Z,100927.84
2022-09-03T18:42:55.358Z,100932.38
2022-09-03T18:46:42.392Z,100934.22
2022-09-03T18:49:16.468Z,100931.84
2022-09-03T18:52:23.241Z,100930.19
2022-09-03T18:55:55.405Z,100931.25
2022-09-03T18:58:52.837Z,100933.94
2022-09-03T19:01:53.540Z,100933.16
2022-09-03T19:04:58.046Z,100931.59
2022-09-03T19:08:11.438Z,100931.72
2022-09-03T19:10:57.086Z,100938.72
2022-09-03T19:13:54.677Z,100931.84
2022-09-03T19:17:00.405Z,100934.59
2022-09-03T19:20:04.445Z,100936.50
2022-09-03T19:23:01.085Z,100940.09
2022-09-03T19:25:49.133Z,100941.13
2022-09-03T19:28:48.365Z,100936.03
2022-09-03T19:32:06.125Z,100937.03
2022-09-03T19:35:24.525Z,100941.50
2022-09-03T19:38:13.607Z,100939.84
2022-09-03T19:41:27.248Z,100943.25
2022-09-03T19:44:29.525Z,100936.53
2022-09-03T19:47:21.158Z,100947.03
2022-09-03T19:50:20.607Z,100954.13
2022-09-03T19:53:12.164Z,100954.16
2022-09-03T19:56:07.625Z,100950.75
2022-09-03T19:58:57.526Z,100957.84
2022-09-03T20:01:51.024Z,100959.69
2022-09-03T20:04:38.045Z,100965.81
2022-09-03T20:07:28.837Z,100966.72
2022-09-03T20:10:20.687Z,100954.66
2022-09-03T20:12:59.846Z,100966.78
2022-09-03T20:15:45.505Z,100958.22
2022-09-03T20:18:35.845Z,100958.22
2022-09-03T20:21:42.397Z,100968.72
2022-09-03T20:24:11.488Z,100965.28
2022-09-03T20:27:12.196Z,100965.31
2022-09-03T20:29:53.846Z,100972.38
2022-09-03T20:32:36.533Z,100962.00
2022-09-03T20:35:22.557Z,100976.78
2022-09-03T20:38:24.203Z,100976.78
2022-09-03T20:41:03.685Z,100987.28
2022-09-03T20:43:33.565Z,100982.97
2022-09-03T20:46:10.199Z,100983.88
2022-09-03T20:48:49.783Z,100987.44
2022-09-03T20:51:23.247Z,100979.63
2022-09-03T20:54:09.125Z,100981.44
2022-09-03T20:56:36.526Z,100984.94
2022-09-03T20:59:26.685Z,100985.84
2022-09-03T21:02:12.171Z,100985.06
2022-09-03T21:04:45.605Z,100985.16
2022-09-03T21:07:12.937Z,100983.47
2022-09-03T21:10:06.486Z,100981.78
2022-09-03T21:12:52.678Z,100998.28
2022-09-03T21:15:37.272Z,100996.63
2022-09-03T21:18:46.046Z,100988.84
2022-09-03T21:21:25.279Z,100992.34
2022-09-03T21:24:12.677Z,100987.19
2022-09-03T21:26:46.327Z,100976.88
2022-09-03T21:29:28.005Z,100992.50
2022-09-03T21:32:03.377Z,100989.09
2022-09-03T21:34:39.819Z,100989.13
2022-09-03T21:37:11.768Z,100987.47
2022-09-03T21:39:47.320Z,100980.56
2022-09-03T21:42:18.659Z,100984.06
2022-09-03T21:44:51.430Z,100987.56
2022-09-03T21:47:21.606Z,100979.00
2022-09-03T21:50:09.295Z,100990.22
2022-09-03T21:52:51.840Z,100989.41
2022-09-03T21:55:27.801Z,100991.16
2022-09-03T21:58:04.961Z,100993.72
2022-09-03T22:00:34.926Z,100996.38
2022-09-03T22:03:02.517Z,100989.50
2022-09-03T22:05:59.020Z,100996.44
2022-09-03T22:08:29.517Z,100995.56
2022-09-03T22:11:10.535Z,100993.84
2022-09-03T22:13:47.867Z,100998.25
2022-09-03T22:16:42.226Z,100990.53
2022-09-03T22:19:09.443Z,100998.28
2022-09-03T22:21:53.685Z,100995.69
2022-09-03T22:24:36.492Z,100998.38
2022-09-03T22:27:18.797Z,100995.81
2022-09-03T22:30:21.863Z,101001.84
2022-09-03T22:33:04.336Z,100996.69
2022-09-03T22:36:01.404Z,100993.25
2022-09-03T22:38:54.265Z,100996.75
2022-09-03T22:41:34.969Z,101005.47
2022-09-03T22:44:08.543Z,100995.09
2022-09-03T22:46:46.645Z,101002.09
2022-09-03T22:49:36.735Z,100994.28
2022-09-03T22:52:35.628Z,100998.63
2022-09-03T22:55:23.461Z,100995.19
2022-09-03T22:57:54.098Z,100997.78
2022-09-03T23:00:21.419Z,100999.50
2022-09-03T23:02:55.412Z,100994.31
2022-09-03T23:05:41.328Z,100996.06
2022-09-03T23:08:25.787Z,101000.41
2022-09-03T23:11:03.349Z,101002.19
2022-09-03T23:13:43.301Z,100996.09
2022-09-03T23:16:51.264Z,100994.41
2022-09-03T23:19:46.735Z,100994.41
2022-09-03T23:22:27.488Z,100991.81
2022-09-03T23:25:02.157Z,100997.88
2022-09-03T23:27:42.198Z,101000.47
2022-09-03T23:30:09.690Z,101002.22
2022-09-03T23:32:36.914Z,101009.16
2022-09-03T23:35:11.972Z,101014.41
2022-09-03T23:38:02.149Z,101012.69
2022-09-03T23:40:57.276Z,101008.41
2022-09-03T23:43:27.523Z,101001.50
2022-09-03T23:46:13.959Z,101011.00
2022-09-03T23:49:09.675Z,101007.59
2022-09-03T23:51:36.773Z,101016.28
2022-09-03T23:54:22.912Z,101018.91
2022-09-03T23:57:16.386Z,101016.31
